Time;durP1;ratioP1;P1;durP2;ratioP2;P2;SDS_P1;SDS_P2;PMS_P1;PMS_P2;Temp;Humidity;BMP_temperature;BMP_pressure;BME280_temperature;BME280_humidity;BME280_pressure;Samples;Min_cycle;Max_cycle;Signal;HPM_P1;HPM_P2
2022/09/23 00:00:26;;;;;;;10.88;8.45;;;;;;;6.44;100.00;101777.56;2097157;28;38568;-74
2022/09/23 00:01:31;;;;;;;10.55;9.10;;;;;;;6.46;100.00;101776.72;2096679;28;36493;-74
2022/09/23 00:02:33;;;;;;;10.40;8.77;;;;;;;6.45;100.00;101769.59;2096818;28;42038;-74
2022/09/23 00:03:38;;;;;;;11.20;8.40;;;;;;;6.48;100.00;101769.63;2097265;28;20169;-74
2022/09/23 00:04:41;;;;;;;12.50;9.25;;;;;;;6.53;100.00;101769.66;2097279;28;27279;-74
2022/09/23 00:05:42;;;;;;;11.13;8.90;;;;;;;6.56;100.00;101766.16;2096077;28;34855;-73
2022/09/23 00:06:44;;;;;;;11.13;8.88;;;;;;;6.57;100.00;101770.56;2096478;28;34254;-74
2022/09/23 00:07:48;;;;;;;11.20;8.45;;;;;;;6.57;100.00;101767.91;2097151;28;20162;-74
2022/09/23 00:08:50;;;;;;;12.27;8.80;;;;;;;6.54;100.00;101766.13;2097109;28;20041;-74
2022/09/23 00:09:58;;;;;;;12.20;8.82;;;;;;;6.58;100.00;101769.69;2088202;28;20026;-74
2022/09/23 00:11:10;;;;;;;11.73;8.75;;;;;;;6.60;100.00;101760.84;2096418;28;38845;-74
2022/09/23 00:12:12;;;;;;;11.13;8.35;;;;;;;6.62;100.00;101766.16;2096993;28;34618;-74
2022/09/23 00:13:13;;;;;;;9.77;8.75;;;;;;;6.60;100.00;101762.63;2095904;28;38759;-74
2022/09/23 00:14:16;;;;;;;10.95;8.05;;;;;;;6.61;100.00;101762.63;2096521;28;20784;-74
2022/09/23 00:15:18;;;;;;;12.07;8.50;;;;;;;6.64;100.00;101753.75;2096998;28;32928;-74
2022/09/23 00:16:32;;;;;;;11.68;8.95;;;;;;;6.66;100.00;101762.69;2096628;28;30922;-74
2022/09/23 00:17:34;;;;;;;9.25;7.45;;;;;;;6.65;100.00;101760.88;2096390;28;29755;-75
2022/09/23 00:18:36;;;;;;;9.73;8.20;;;;;;;6.65;100.00;101756.44;2096264;28;35124;-75
2022/09/23 00:19:39;;;;;;;9.70;7.13;;;;;;;6.63;100.00;101762.66;2097177;28;24552;-75
2022/09/23 00:20:41;;;;;;;10.15;8.02;;;;;;;6.59;100.00;101761.72;2096860;28;33098;-75
2022/09/23 00:21:42;;;;;;;14.52;7.28;;;;;;;6.59;100.00;101752.88;2096810;28;34198;-75
2022/09/23 00:22:44;;;;;;;8.75;7.85;;;;;;;6.59;100.00;101760.84;2096782;28;30602;-74
2022/09/23 00:23:47;;;;;;;10.25;7.85;;;;;;;6.60;100.00;101759.94;2096305;28;36276;-74
2022/09/23 00:24:49;;;;;;;11.02;8.90;;;;;;;6.60;100.00;101751.97;2095547;28;40676;-74
2022/09/23 00:25:59;;;;;;;8.50;7.25;;;;;;;6.56;100.00;101747.53;2097596;28;20056;-74
2022/09/23 00:27:01;;;;;;;;;;;;;;;6.57;100.00;101750.19;2097019;28;40927;-75
2022/09/23 00:28:02;;;;;;;10.20;7.75;;;;;;;6.56;100.00;101751.06;2097429;28;33358;-73
2022/09/23 00:29:06;;;;;;;8.15;7.35;;;;;;;6.58;100.00;101737.78;2096358;28;31650;-74
2022/09/23 00:30:09;;;;;;;10.25;7.90;;;;;;;6.54;100.00;101743.97;2096469;28;35522;-73
2022/09/23 00:31:17;;;;;;;11.98;8.68;;;;;;;6.53;100.00;101747.50;2096308;28;33449;-75
2022/09/23 00:32:19;;;;;;;13.60;8.85;;;;;;;6.54;100.00;101743.97;2096180;28;36702;-74
2022/09/23 00:33:20;;;;;;;10.68;7.20;;;;;;;6.51;100.00;101744.81;2096878;28;32312;-74
2022/09/23 00:34:22;;;;;;;8.10;7.28;;;;;;;6.47;100.00;101748.34;2096744;28;20882;-75
2022/09/23 00:35:24;;;;;;;8.35;7.10;;;;;;;6.46;100.00;101739.47;2096151;28;35188;-75
2022/09/23 00:36:27;;;;;;;7.63;6.18;;;;;;;6.47;100.00;101745.69;2096858;28;29664;-74
2022/09/23 00:37:31;;;;;;;10.05;7.85;;;;;;;6.45;100.00;101737.69;2096697;28;35962;-74
2022/09/23 00:38:33;;;;;;;10.45;7.95;;;;;;;6.42;100.00;101748.28;2096500;28;34666;-74
2022/09/23 00:39:34;;;;;;;8.75;7.50;;;;;;;6.38;100.00;101741.19;2096069;28;37875;-75
2022/09/23 00:40:45;;;;;;;8.82;7.95;;;;;;;6.35;100.00;101741.16;2096870;28;32360;-74
2022/09/23 00:41:47;;;;;;;8.60;7.15;;;;;;;6.36;100.00;101745.59;2097103;28;33668;-75
2022/09/23 00:42:50;;;;;;;11.65;8.13;;;;;;;6.43;100.00;101743.88;2096491;28;36963;-74
2022/09/23 00:43:58;;;;;;;9.80;8.80;;;;;;;6.45;100.00;101747.44;2096766;28;34525;-74
2022/09/23 00:45:00;;;;;;;10.05;7.53;;;;;;;6.42;100.00;101744.75;2097429;28;20033;-75
2022/09/23 00:46:05;;;;;;;9.63;8.25;;;;;;;6.39;100.00;101742.97;2104972;28;20652;-74
2022/09/23 00:47:28;;;;;;;8.57;7.20;;;;;;;6.41;100.00;101737.69;2103830;28;34534;-75
2022/09/23 00:48:30;;;;;;;10.43;7.10;;;;;;;6.37;100.00;101736.75;2096858;28;20045;-74
2022/09/23 00:49:32;;;;;;;7.28;6.68;;;;;;;6.36;100.00;101731.44;2089320;28;34525;-75
2022/09/23 00:50:41;;;;;;;7.13;6.28;;;;;;;6.32;100.00;101741.16;2096471;28;35481;-75
2022/09/23 00:52:01;;;;;;;9.85;7.05;;;;;;;6.28;100.00;101739.31;2095913;28;30030;-74
2022/09/23 00:53:08;;;;;;;11.60;7.57;;;;;;;6.29;100.00;101731.38;2091534;28;38618;-74
2022/09/23 00:54:13;;;;;;;11.45;7.80;;;;;;;6.30;100.00;101738.47;2096483;28;31509;-74
2022/09/23 00:55:26;;;;;;;8.82;6.78;;;;;;;6.26;100.00;101733.09;2095178;28;35207;-74
2022/09/23 00:56:30;;;;;;;9.05;6.72;;;;;;;6.24;100.00;101730.44;2097093;28;20482;-74
2022/09/23 00:57:33;;;;;;;8.70;7.35;;;;;;;6.22;100.00;101736.63;2095905;28;32064;-74
2022/09/23 00:58:39;;;;;;;12.70;8.25;;;;;;;6.22;100.00;101734.84;2088258;28;33654;-75
2022/09/23 00:59:42;;;;;;;9.00;7.32;;;;;;;6.26;100.00;101735.78;2088605;28;30935;-75
2022/09/23 01:00:45;;;;;;;8.48;6.93;;;;;;;6.25;100.00;101731.34;2096112;28;33632;-74
2022/09/23 01:01:52;;;;;;;9.07;7.72;;;;;;;6.25;100.00;101728.69;2096349;28;34860;-74
2022/09/23 01:02:54;;;;;;;11.35;8.02;;;;;;;6.22;100.00;101724.22;2096665;28;36859;-74
2022/09/23 01:03:57;;;;;;;9.18;7.25;;;;;;;6.18;100.00;101718.88;2096622;28;33648;-74
2022/09/23 01:05:02;;;;;;;8.40;7.32;;;;;;;6.16;100.00;101724.19;2096672;28;36804;-74
2022/09/23 01:06:04;;;;;;;7.28;6.57;;;;;;;6.16;100.00;101723.31;2096814;28;20802;-74
2022/09/23 01:07:06;;;;;;;7.35;6.63;;;;;;;6.13;100.00;101723.28;2096708;28;35492;-75
2022/09/23 01:08:11;;;;;;;7.82;7.00;;;;;;;6.11;100.00;101721.47;2096486;28;32455;-75
2022/09/23 01:09:13;;;;;;;8.63;6.75;;;;;;;6.13;100.00;101724.16;2096274;28;31445;-74
2022/09/23 01:10:17;;;;;;;8.98;7.07;;;;;;;6.15;100.00;101717.06;2095475;28;32691;-75
2022/09/23 01:11:47;;;;;;;7.57;6.70;;;;;;;6.14;100.00;101725.94;2096653;28;31337;-74
2022/09/23 01:13:12;;;;;;;10.23;7.00;;;;;;;6.09;100.00;101720.56;2096891;28;32193;-75
2022/09/23 01:14:41;;;;;;;9.40;6.78;;;;;;;6.07;100.00;101718.81;2096424;28;20048;-75
2022/09/23 01:16:05;;;;;;;7.40;5.95;;;;;;;6.03;100.00;101711.66;2096156;28;40009;-74
2022/09/23 01:17:28;;;;;;;7.10;6.25;;;;;;;5.99;100.00;101716.06;2097410;28;20827;-74
2022/09/23 01:18:59;;;;;;;7.63;6.25;;;;;;;5.96;100.00;101718.72;2100772;28;34282;-74
2022/09/23 01:20:10;;;;;;;;;;;;;;;5.91;100.00;101713.31;2100775;28;36100;-75
2022/09/23 01:21:49;;;;;;;;;;;;;;;5.92;100.00;101711.53;2096963;28;38294;-75
2022/09/23 01:23:32;;;;;;;8.77;7.22;;;;;;;5.96;100.00;101710.75;2096195;28;33666;-74
2022/09/23 01:24:58;;;;;;;7.80;6.95;;;;;;;6.01;100.00;101708.09;2095374;28;36866;-74
2022/09/23 01:26:24;;;;;;;11.40;8.05;;;;;;;6.14;100.00;101704.69;2096883;28;32237;-74
2022/09/23 01:27:44;;;;;;;11.15;7.43;;;;;;;6.17;100.00;101712.66;2096641;28;34403;-74
2022/09/23 01:28:48;;;;;;;10.32;8.35;;;;;;;6.22;100.00;101713.59;2104046;28;35420;-74
2022/09/23 01:30:40;;;;;;;9.45;7.40;;;;;;;6.23;100.00;101704.75;2103855;28;34083;-75
2022/09/23 01:31:59;;;;;;;8.70;7.82;;;;;;;6.25;100.00;101700.31;2095596;28;34470;-74
2022/09/23 01:33:23;;;;;;;8.70;7.15;;;;;;;6.26;100.00;101699.44;2095434;28;31432;-74
2022/09/23 01:34:41;;;;;;;8.43;7.60;;;;;;;6.28;100.00;101704.75;2095527;28;32894;-74
2022/09/23 01:36:09;;;;;;;7.88;6.40;;;;;;;6.30;100.00;101700.38;2087616;28;20091;-74
2022/09/23 01:37:34;;;;;;;10.52;7.65;;;;;;;6.28;100.00;101696.78;2092442;28;20048;-74
2022/09/23 01:39:32;;;;;;;9.43;7.20;;;;;;;6.25;100.00;101691.47;2096530;28;28622;-74
2022/09/23 01:40:41;;;;;;;5.82;5.30;;;;;;;6.23;100.00;101701.19;2094277;28;31473;-74
2022/09/23 01:42:24;;;;;;;6.90;6.28;;;;;;;6.24;100.00;101694.97;2096330;28;20875;-74
2022/09/23 01:43:56;;;;;;;8.30;6.70;;;;;;;6.24;100.00;101694.97;2095979;28;38075;-74
2022/09/23 01:45:18;;;;;;;8.82;7.30;;;;;;;6.31;100.00;101702.13;2096362;28;29970;-74
2022/09/23 01:46:41;;;;;;;9.43;7.13;;;;;;;6.33;100.00;101692.38;2096509;28;32001;-74
2022/09/23 01:48:01;;;;;;;11.02;6.85;;;;;;;6.36;100.00;101692.41;2095647;28;32334;-74
2022/09/23 01:49:14;;;;;;;8.35;6.15;;;;;;;6.35;100.00;101682.63;2095875;28;35406;-74
2022/09/23 01:52:05;;;;;;;8.05;6.70;;;;;;;6.39;100.00;101687.13;2095210;28;39171;-74
2022/09/23 01:53:20;;;;;;;6.70;5.85;;;;;;;6.39;100.00;101691.53;2096538;28;32247;-74
2022/09/23 01:54:37;;;;;;;6.95;6.05;;;;;;;6.37;100.00;101675.59;2095541;28;40239;-74
2022/09/23 01:55:47;;;;;;;8.38;6.05;;;;;;;6.34;100.00;101683.53;2095521;28;38813;-73
2022/09/23 01:57:02;;;;;;;9.10;6.80;;;;;;;6.32;100.00;101682.66;2095964;28;37650;-73
2022/09/23 01:59:01;;;;;;;7.97;5.72;;;;;;;6.28;100.00;101681.72;2095642;28;31791;-73
2022/09/23 02:00:13;;;;;;;8.73;6.15;;;;;;;6.28;100.00;101686.13;2074004;28;38844;-73
2022/09/23 02:01:26;;;;;;;7.18;6.13;;;;;;;6.26;100.00;101677.25;2095726;28;36269;-74
2022/09/23 02:02:50;;;;;;;8.25;6.50;;;;;;;6.30;100.00;101684.41;2089502;28;36297;-73
2022/09/23 02:04:07;;;;;;;8.13;6.40;;;;;;;6.29;100.00;101682.63;2095933;28;34945;-72
2022/09/23 02:05:38;;;;;;;10.10;7.40;;;;;;;6.33;100.00;101686.19;2095426;28;39346;-73
2022/09/23 02:07:08;;;;;;;8.32;6.57;;;;;;;6.37;100.00;101675.59;2095764;28;34942;-73
2022/09/23 02:08:18;;;;;;;9.23;6.75;;;;;;;6.38;100.00;101680.00;2095288;28;36879;-73
2022/09/23 02:09:38;;;;;;;7.43;5.93;;;;;;;6.36;100.00;101681.78;2089570;28;35546;-74
2022/09/23 02:10:46;;;;;;;7.28;6.05;;;;;;;6.37;100.00;101675.59;2090639;28;35345;-73
2022/09/23 02:11:51;;;;;;;7.57;6.32;;;;;;;6.39;100.00;101673.81;2096099;28;33588;-74
2022/09/23 02:13:04;;;;;;;7.35;6.28;;;;;;;6.41;100.00;101676.50;2095391;28;39036;-73
2022/09/23 02:14:18;;;;;;;6.07;5.40;;;;;;;6.40;100.00;101683.56;2095609;28;37495;-74
2022/09/23 02:15:27;;;;;;;9.90;7.57;;;;;;;6.47;100.00;101681.84;2095356;28;38917;-74
2022/09/23 02:16:54;;;;;;;7.53;6.57;;;;;;;6.44;100.00;101680.06;2095409;28;38552;-74
2022/09/23 02:18:08;;;;;;;7.07;5.85;;;;;;;6.44;100.00;101688.03;2095687;28;34732;-74
2022/09/23 02:19:26;;;;;;;6.32;5.72;;;;;;;6.44;100.00;101687.13;2095056;28;32129;-73
2022/09/23 02:20:35;;;;;;;6.28;5.63;;;;;;;6.43;100.00;101685.38;2095901;28;35465;-73
2022/09/23 02:21:51;;;;;;;6.25;5.40;;;;;;;6.45;100.00;101683.59;2095557;28;34991;-73
2022/09/23 02:23:30;;;;;;;6.78;6.03;;;;;;;6.46;100.00;101680.97;2087550;28;20041;-74
2022/09/23 02:24:36;;;;;;;6.57;5.82;;;;;;;6.47;100.00;101682.72;2083005;28;32403;-74
2022/09/23 02:25:58;;;;;;;8.20;6.18;;;;;;;6.52;100.00;101680.09;2095486;28;35389;-73
2022/09/23 02:27:13;;;;;;;6.72;5.43;;;;;;;6.52;100.00;101681.88;2095507;28;32844;-74
2022/09/23 02:28:47;;;;;;;6.63;5.25;;;;;;;6.53;100.00;101675.66;2095278;28;38578;-73
2022/09/23 02:30:01;;;;;;;10.07;6.57;;;;;;;6.57;100.00;101678.34;2094771;28;36465;-73
2022/09/23 02:31:07;;;;;;;6.05;5.45;;;;;;;6.54;100.00;101682.78;2096177;28;33574;-73
2022/09/23 02:32:28;;;;;;;6.20;5.60;;;;;;;6.53;100.00;101676.53;2095446;28;33680;-75
2022/09/23 02:33:51;;;;;;;7.05;5.32;;;;;;;6.51;100.00;101675.66;2095459;28;32478;-74
2022/09/23 02:35:25;;;;;;;8.50;4.78;;;;;;;6.49;100.00;101667.66;2096500;28;20075;-75
2022/09/23 02:36:39;;;;;;;6.97;5.78;;;;;;;6.48;100.00;101670.34;2096025;28;39267;-73
2022/09/23 02:38:25;;;;;;;6.00;5.28;;;;;;;6.53;100.00;101667.69;2095501;28;20056;-73
2022/09/23 02:39:45;;;;;;;6.15;5.45;;;;;;;6.54;100.00;101661.50;2095502;28;33974;-73
2022/09/23 02:41:04;;;;;;;6.68;5.30;;;;;;;6.54;100.00;101672.13;2095802;28;36580;-73
2022/09/23 02:42:12;;;;;;;7.97;5.38;;;;;;;6.50;100.00;101665.91;2095603;28;39638;-75
2022/09/23 02:43:44;;;;;;;8.27;5.13;;;;;;;6.51;100.00;101665.00;2095417;28;39587;-75
2022/09/23 02:44:46;;;;;;;7.55;5.40;;;;;;;6.53;100.00;101663.25;2091846;28;31922;-75
2022/09/23 02:45:49;;;;;;;6.72;5.90;;;;;;;6.53;100.00;101660.56;2091234;28;20038;-74
2022/09/23 02:46:52;;;;;;;7.80;5.82;;;;;;;6.54;100.00;101662.38;2087221;28;35284;-74
2022/09/23 02:48:03;;;;;;;6.00;5.47;;;;;;;6.54;100.00;101662.38;2095032;28;34422;-75
2022/09/23 02:49:29;;;;;;;7.63;6.10;;;;;;;6.54;100.00;101656.16;2095520;28;33038;-74
2022/09/23 02:50:32;;;;;;;5.85;5.32;;;;;;;6.52;100.00;101661.47;2091492;28;34282;-75
2022/09/23 02:51:37;;;;;;;7.75;5.43;;;;;;;6.48;100.00;101657.91;2095485;28;41677;-74
2022/09/23 02:52:38;;;;;;;9.23;6.40;;;;;;;6.52;100.00;101658.81;2097890;28;20878;-74
2022/09/23 02:53:40;;;;;;;8.52;5.60;;;;;;;6.49;100.00;101654.34;2097310;28;38298;-74
2022/09/23 02:54:43;;;;;;;6.50;5.18;;;;;;;6.50;100.00;101653.47;2096552;28;31298;-74
2022/09/23 02:55:44;;;;;;;5.40;4.90;;;;;;;6.50;100.00;101642.84;2088975;28;34022;-74
2022/09/23 02:56:49;;;;;;;6.00;5.40;;;;;;;6.50;100.00;101645.50;2088352;28;33736;-74
2022/09/23 02:57:52;;;;;;;6.07;4.88;;;;;;;6.47;100.00;101647.25;2096963;28;31201;-74
2022/09/23 02:58:56;;;;;;;7.18;5.72;;;;;;;6.47;100.00;101649.91;2097158;28;40091;-74
2022/09/23 02:59:58;;;;;;;6.07;5.20;;;;;;;6.44;100.00;101642.81;2096840;28;38859;-74
2022/09/23 03:01:32;;;;;;;6.43;4.78;;;;;;;6.42;100.00;101647.22;2097241;28;29661;-74
2022/09/23 03:03:17;;;;;;;5.60;5.05;;;;;;;6.35;100.00;101641.88;2096675;28;34412;-75
2022/09/23 03:05:02;;;;;;;6.10;5.28;;;;;;;6.36;100.00;101639.22;2083145;28;20057;-74
2022/09/23 03:06:53;;;;;;;8.50;5.88;;;;;;;6.34;100.00;101642.75;2098112;28;20875;-74
2022/09/23 03:08:27;;;;;;;5.97;4.82;;;;;;;6.33;100.00;101639.19;2091614;28;37222;-74
2022/09/23 03:09:37;;;;;;;5.95;4.97;;;;;;;6.29;100.00;101640.94;2079732;28;34538;-74
2022/09/23 03:11:07;;;;;;;7.20;5.45;;;;;;;6.30;100.00;101637.41;2080312;28;33620;-74
2022/09/23 03:12:29;;;;;;;6.57;5.93;;;;;;;6.29;100.00;101637.41;2080341;28;33572;-74
2022/09/23 03:13:41;;;;;;;6.53;5.85;;;;;;;6.25;100.00;101641.81;2085948;28;32894;-74
2022/09/23 03:15:00;;;;;;;7.32;5.28;;;;;;;6.23;100.00;101637.38;2088563;28;32738;-74
2022/09/23 03:16:09;;;;;;;5.05;4.63;;;;;;;6.22;100.00;101631.16;2088857;28;39802;-74
2022/09/23 03:17:33;;;;;;;6.18;5.20;;;;;;;6.21;100.00;101632.06;2088901;28;20071;-74
2022/09/23 03:18:55;;;;;;;7.45;6.45;;;;;;;6.27;100.00;101631.19;2083845;28;38714;-74
2022/09/23 03:20:16;;;;;;;11.60;6.20;;;;;;;6.27;100.00;101631.19;2085229;28;35502;-74
2022/09/23 03:21:39;;;;;;;8.60;5.97;;;;;;;6.27;100.00;101625.88;2084344;28;35106;-74
2022/09/23 03:22:58;;;;;;;8.10;5.90;;;;;;;6.26;100.00;101624.06;2085230;28;20042;-74
2022/09/23 03:24:06;;;;;;;6.72;5.82;;;;;;;6.24;100.00;101620.53;2083678;28;39326;-74
2022/09/23 03:25:16;;;;;;;10.82;6.07;;;;;;;6.22;100.00;101617.84;2079841;28;33760;-74
2022/09/23 03:26:28;;;;;;;7.43;5.60;;;;;;;6.26;100.00;101621.41;2075345;28;34759;-74
2022/09/23 03:27:33;;;;;;;8.02;5.78;;;;;;;6.24;100.00;101621.41;2082232;28;34831;-74
2022/09/23 03:28:42;;;;;;;7.68;5.57;;;;;;;6.25;100.00;101620.53;2081493;28;32525;-74
2022/09/23 03:29:48;;;;;;;7.03;5.80;;;;;;;6.26;100.00;101621.41;2087698;28;41316;-74
2022/09/23 03:30:53;;;;;;;8.70;6.18;;;;;;;6.30;100.00;101620.59;2082785;28;20924;-74
2022/09/23 03:31:57;;;;;;;7.00;5.95;;;;;;;6.31;100.00;101617.03;2080887;28;29209;-74
2022/09/23 03:32:59;;;;;;;9.60;6.93;;;;;;;6.35;100.00;101617.94;2080960;28;28860;-74
2022/09/23 03:34:09;;;;;;;6.97;6.28;;;;;;;6.35;100.00;101613.50;2080279;28;37208;-74
2022/09/23 03:35:12;;;;;;;6.78;6.07;;;;;;;6.35;100.00;101612.59;2089562;28;21077;-74
2022/09/23 03:37:55;;;;;;;7.03;6.43;;;;;;;6.39;100.00;101617.97;2088800;28;24833;-74
2022/09/23 03:39:05;;;;;;;8.05;5.95;;;;;;;6.34;100.00;101601.09;2088837;28;34069;-74
2022/09/23 03:40:27;;;;;;;6.30;5.70;;;;;;;6.38;100.00;101607.31;2095764;28;41747;-74
2022/09/23 03:41:40;;;;;;;6.95;5.65;;;;;;;6.41;100.00;101604.69;2097573;28;20033;-74
2022/09/23 03:42:42;;;;;;;8.07;5.80;;;;;;;6.42;100.00;101599.34;2095937;28;39076;-74
2022/09/23 03:43:44;;;;;;;6.80;5.97;;;;;;;6.42;100.00;101602.00;2096709;28;29893;-74
2022/09/23 03:44:51;;;;;;;7.18;6.15;;;;;;;6.42;100.00;101594.03;2096226;28;33906;-74
2022/09/23 03:45:56;;;;;;;7.63;6.05;;;;;;;6.45;100.00;101599.38;2097382;28;20041;-74
2022/09/23 03:47:01;;;;;;;6.22;5.40;;;;;;;6.38;100.00;101597.56;2096543;28;35416;-74
2022/09/23 03:48:03;;;;;;;6.40;5.80;;;;;;;6.42;100.00;101606.44;2096422;28;31674;-74
2022/09/23 03:49:27;;;;;;;7.60;6.05;;;;;;;6.36;100.00;101601.97;2096364;28;35764;-74
2022/09/23 03:50:29;;;;;;;6.47;5.82;;;;;;;6.36;100.00;101601.97;2096452;28;35837;-74
2022/09/23 03:51:31;;;;;;;8.48;6.53;;;;;;;6.34;100.00;101595.78;2099605;28;20833;-74
2022/09/23 03:52:35;;;;;;;6.18;5.55;;;;;;;6.35;100.00;101597.53;2097145;28;30700;-74
2022/09/23 03:53:38;;;;;;;7.65;6.35;;;;;;;6.38;100.00;101597.56;2096809;28;30923;-74
2022/09/23 03:54:41;;;;;;;7.65;6.63;;;;;;;6.43;100.00;101597.59;2097332;28;20045;-74
2022/09/23 03:55:45;;;;;;;8.02;5.57;;;;;;;6.42;100.00;101593.13;2097450;28;34806;-74
2022/09/23 03:56:47;;;;;;;8.45;6.13;;;;;;;6.40;100.00;101595.78;2096229;28;35358;-75
2022/09/23 03:57:48;;;;;;;6.20;5.40;;;;;;;6.40;100.00;101594.91;2096804;28;29780;-74
2022/09/23 03:58:50;;;;;;;6.40;5.80;;;;;;;6.35;100.00;101583.34;2096932;28;39863;-74
2022/09/23 03:59:52;;;;;;;8.25;6.07;;;;;;;6.34;100.00;101592.22;2096962;28;34990;-74
2022/09/23 04:00:54;;;;;;;6.50;5.93;;;;;;;6.34;100.00;101590.44;2096892;28;32137;-74
2022/09/23 04:01:58;;;;;;;7.05;5.97;;;;;;;6.33;100.00;101587.78;2097106;28;38469;-75
2022/09/23 04:03:00;;;;;;;6.63;6.03;;;;;;;6.31;100.00;101590.44;2097289;28;20025;-74
2022/09/23 04:04:01;;;;;;;8.98;6.10;;;;;;;6.31;100.00;101591.31;2096197;28;31450;-75
2022/09/23 04:05:04;;;;;;;8.10;5.72;;;;;;;6.31;100.00;101591.31;2096858;28;33444;-75
2022/09/23 04:06:07;;;;;;;7.35;5.90;;;;;;;6.28;100.00;101591.31;2096615;28;20056;-75
2022/09/23 04:07:10;;;;;;;7.25;5.70;;;;;;;6.29;100.00;101592.19;2096132;28;39543;-75
2022/09/23 04:08:12;;;;;;;6.55;5.68;;;;;;;6.27;100.00;101592.19;2097096;28;39103;-75
2022/09/23 04:09:14;;;;;;;7.82;6.38;;;;;;;6.29;100.00;101584.22;2097041;28;30139;-75
2022/09/23 04:10:15;;;;;;;18.88;7.82;;;;;;;6.29;100.00;101585.09;2096071;28;32083;-74
2022/09/23 04:11:17;;;;;;;7.93;6.38;;;;;;;6.27;100.00;101586.00;2096519;28;30026;-74
2022/09/23 04:12:19;;;;;;;6.03;5.47;;;;;;;6.24;100.00;101584.19;2096366;28;35179;-74
2022/09/23 04:13:20;;;;;;;6.68;5.80;;;;;;;6.23;100.00;101579.75;2088031;28;35514;-74
2022/09/23 04:14:27;;;;;;;6.18;5.57;;;;;;;6.19;100.00;101582.38;2088885;28;20148;-75
2022/09/23 04:15:28;;;;;;;7.65;6.70;;;;;;;6.16;100.00;101583.28;2088501;28;34877;-75
2022/09/23 04:16:30;;;;;;;8.02;6.28;;;;;;;6.18;100.00;101583.28;2096230;28;29959;-74
2022/09/23 04:17:32;;;;;;;7.93;6.63;;;;;;;6.13;100.00;101580.59;2087818;28;38677;-75
2022/09/23 04:18:34;;;;;;;7.30;6.57;;;;;;;6.12;100.00;101594.78;2096487;28;37174;-75
2022/09/23 04:19:36;;;;;;;6.88;6.18;;;;;;;6.11;100.00;101587.66;2096453;28;39312;-75
2022/09/23 04:20:38;;;;;;;6.53;5.70;;;;;;;6.07;100.00;101586.75;2096312;28;36322;-74
2022/09/23 04:21:41;;;;;;;6.93;6.20;;;;;;;6.07;100.00;101592.06;2089012;28;20167;-75
2022/09/23 04:22:43;;;;;;;7.55;6.70;;;;;;;6.07;100.00;101583.22;2088017;28;30534;-75
2022/09/23 04:23:45;;;;;;;7.13;6.40;;;;;;;6.08;100.00;101580.56;2096216;28;33467;-75
2022/09/23 04:24:47;;;;;;;8.50;6.45;;;;;;;6.08;100.00;101588.56;2097629;28;20033;-75
2022/09/23 04:25:49;;;;;;;7.55;6.78;;;;;;;6.09;100.00;101585.00;2096323;28;36811;-74
2022/09/23 04:26:53;;;;;;;9.43;6.78;;;;;;;6.08;100.00;101577.91;2096975;28;36579;-74
2022/09/23 04:27:55;;;;;;;8.90;6.80;;;;;;;6.09;100.00;101585.00;2096574;28;35907;-75
2022/09/23 04:28:57;;;;;;;9.82;7.00;;;;;;;6.09;100.00;101584.13;2096863;28;36024;-74
2022/09/23 04:29:58;;;;;;;6.72;6.13;;;;;;;6.08;100.00;101572.59;2097139;28;20045;-75
2022/09/23 04:31:05;;;;;;;7.15;6.38;;;;;;;6.07;100.00;101576.13;2097399;28;20063;-75
2022/09/23 04:32:09;;;;;;;7.80;7.00;;;;;;;6.03;100.00;101571.69;2096891;28;31874;-75
2022/09/23 04:33:15;;;;;;;8.13;7.07;;;;;;;5.98;100.00;101565.44;2096602;28;30801;-74
2022/09/23 04:34:18;;;;;;;9.10;6.45;;;;;;;5.95;100.00;101565.38;2096061;28;34110;-74
2022/09/23 04:35:19;;;;;;;8.52;6.90;;;;;;;5.94;100.00;101563.63;2096347;28;29460;-74
2022/09/23 04:36:21;;;;;;;6.55;6.03;;;;;;;5.92;100.00;101566.25;2096580;28;33556;-75
2022/09/23 04:37:23;;;;;;;12.30;7.53;;;;;;;5.90;100.00;101561.81;2097102;28;36737;-74
2022/09/23 04:38:25;;;;;;;7.82;7.03;;;;;;;5.90;100.00;101567.13;2096590;28;38443;-74
2022/09/23 04:39:27;;;;;;;7.45;6.40;;;;;;;5.92;100.00;101568.00;2078981;28;39368;-74
2022/09/23 04:40:29;;;;;;;8.13;6.70;;;;;;;5.88;100.00;101563.56;2079521;28;34589;-74
2022/09/23 04:41:30;;;;;;;8.02;6.47;;;;;;;5.86;100.00;101565.31;2096782;28;34234;-74
2022/09/23 04:42:32;;;;;;;8.18;6.82;;;;;;;5.87;100.00;101561.81;2096830;28;32870;-74
2022/09/23 04:43:34;;;;;;;7.43;6.72;;;;;;;5.85;100.00;101566.19;2097338;28;37197;-74
2022/09/23 04:44:37;;;;;;;7.78;6.97;;;;;;;5.82;100.00;101564.41;2095648;28;34121;-74
2022/09/23 04:45:39;;;;;;;11.02;7.22;;;;;;;5.79;100.00;101558.19;2096558;28;31943;-74
2022/09/23 04:46:46;;;;;;;7.85;5.88;;;;;;;5.78;100.00;101561.72;2096472;28;27315;-74
2022/09/23 04:47:50;;;;;;;9.90;6.57;;;;;;;5.70;100.00;101556.34;2096448;28;31176;-74
2022/09/23 04:48:52;;;;;;;9.18;6.82;;;;;;;5.69;100.00;101555.47;2096543;28;36995;-74
2022/09/23 04:49:54;;;;;;;10.60;7.15;;;;;;;5.68;100.00;101555.47;2097049;28;21882;-74
2022/09/23 04:51:15;;;;;;;9.57;6.60;;;;;;;5.64;100.00;101559.88;2103924;28;36175;-74
2022/09/23 04:52:16;;;;;;;9.52;7.10;;;;;;;5.64;100.00;101557.22;2102727;28;27471;-74
2022/09/23 04:53:20;;;;;;;8.25;7.22;;;;;;;5.63;100.00;101563.38;2096352;28;37271;-74
2022/09/23 04:54:21;;;;;;;10.13;7.90;;;;;;;5.65;100.00;101550.13;2096515;28;37277;-74
2022/09/23 04:55:23;;;;;;;8.48;7.55;;;;;;;5.63;100.00;101558.06;2096442;28;27083;-73
2022/09/23 04:56:31;;;;;;;8.70;7.80;;;;;;;5.68;100.00;101550.16;2096686;28;41633;-74
2022/09/23 04:57:33;;;;;;;10.90;8.05;;;;;;;5.71;100.00;101551.06;2095866;28;38981;-74
2022/09/23 04:58:35;;;;;;;10.38;8.82;;;;;;;5.72;100.00;101550.19;2095886;28;38185;-74
2022/09/23 04:59:37;;;;;;;9.98;8.52;;;;;;;5.80;100.00;101547.56;2095799;28;37087;-74
2022/09/23 05:00:39;;;;;;;9.27;8.32;;;;;;;5.79;100.00;101552.88;2096053;28;31412;-74
2022/09/23 05:01:40;;;;;;;8.55;7.70;;;;;;;5.78;100.00;101545.78;2095611;28;35215;-73
2022/09/23 05:02:48;;;;;;;11.13;7.45;;;;;;;5.75;100.00;101551.97;2096647;28;40815;-74
2022/09/23 05:03:52;;;;;;;10.60;8.85;;;;;;;5.75;100.00;101549.31;2086742;28;30647;-74
2022/09/23 05:04:54;;;;;;;10.77;9.05;;;;;;;5.78;100.00;101546.69;2087819;28;29921;-74
2022/09/23 05:05:58;;;;;;;9.85;7.88;;;;;;;5.73;100.00;101554.63;2080912;28;20404;-74
2022/09/23 05:07:00;;;;;;;8.50;7.68;;;;;;;5.70;100.00;101543.06;2087604;28;31298;-74
2022/09/23 05:08:04;;;;;;;8.30;6.35;;;;;;;5.68;100.00;101543.06;2088069;28;25991;-75
2022/09/23 05:09:07;;;;;;;10.10;8.35;;;;;;;5.72;100.00;101552.84;2088614;28;20045;-75
2022/09/23 05:10:09;;;;;;;9.10;7.93;;;;;;;5.69;100.00;101555.47;2087848;28;26684;-74
2022/09/23 05:11:10;;;;;;;10.45;7.95;;;;;;;5.67;100.00;101549.28;2087811;28;35673;-73
2022/09/23 05:12:12;;;;;;;11.95;8.45;;;;;;;5.68;100.00;101551.03;2087677;28;31957;-73
2022/09/23 05:13:14;;;;;;;11.05;8.85;;;;;;;5.69;100.00;101555.47;2088632;28;20037;-74
2022/09/23 05:14:16;;;;;;;10.75;8.10;;;;;;;5.68;100.00;101551.03;2095363;28;35609;-74
2022/09/23 05:15:18;;;;;;;11.20;8.48;;;;;;;5.65;100.00;101548.38;2095627;28;30931;-73
2022/09/23 05:16:22;;;;;;;9.73;8.20;;;;;;;5.63;100.00;101551.88;2088065;28;33806;-73
2022/09/23 05:17:24;;;;;;;8.38;6.82;;;;;;;5.62;100.00;101551.00;2094009;28;32937;-74
2022/09/23 05:18:39;;;;;;;11.85;8.30;;;;;;;5.66;100.00;101549.25;2096230;28;28749;-73
2022/09/23 05:19:41;;;;;;;9.43;7.85;;;;;;;5.70;100.00;101551.94;2095787;28;31940;-72
2022/09/23 05:20:43;;;;;;;10.13;9.13;;;;;;;5.71;100.00;101551.06;2096038;28;32459;-73
2022/09/23 05:21:44;;;;;;;11.13;8.38;;;;;;;5.68;100.00;101548.38;2096354;28;37531;-74
2022/09/23 05:22:46;;;;;;;11.25;8.73;;;;;;;5.71;100.00;101550.19;2096231;28;35428;-75
2022/09/23 05:23:53;;;;;;;9.65;8.05;;;;;;;5.73;100.00;101549.28;2096775;28;34331;-74
2022/09/23 05:24:57;;;;;;;11.00;8.68;;;;;;;5.74;100.00;101548.44;2096811;28;20134;-75
2022/09/23 05:26:06;;;;;;;10.30;8.52;;;;;;;5.72;100.00;101550.19;2087429;28;23348;-74
2022/09/23 05:27:11;;;;;;;10.98;8.35;;;;;;;5.71;100.00;101544.88;2088966;28;34667;-74